createdAt,value
2023-02-24T00:00:09.308Z,95.68
2023-02-24T00:01:09.268Z,95.68
2023-02-24T00:02:09.373Z,95.68
2023-02-24T00:03:09.315Z,95.57
2023-02-24T00:04:09.241Z,95.68
2023-02-24T00:05:09.224Z,95.68
2023-02-24T00:06:09.219Z,95.68
2023-02-24T00:07:09.195Z,95.68
2023-02-24T00:08:09.185Z,95.78
2023-02-24T00:09:09.176Z,95.78
2023-02-24T00:10:09.170Z,95.78
2023-02-24T00:11:09.158Z,95.94
2023-02-24T00:12:09.190Z,95.94
2023-02-24T00:13:09.124Z,95.94
2023-02-24T00:14:09.148Z,95.83
2023-02-24T00:15:09.124Z,95.83
2023-02-24T00:16:09.251Z,95.83
2023-02-24T00:17:09.226Z,95.83
2023-02-24T00:18:09.063Z,95.73
2023-02-24T00:19:09.082Z,95.73
2023-02-24T00:20:09.034Z,95.73
2023-02-24T00:21:10.522Z,95.83
2023-02-24T00:22:09.128Z,95.83
2023-02-24T00:23:09.022Z,95.94
2023-02-24T00:24:08.994Z,95.94
2023-02-24T00:25:08.984Z,95.94
2023-02-24T00:26:08.990Z,96.03
2023-02-24T00:27:08.962Z,96.03
2023-02-24T00:28:08.976Z,96.14
2023-02-24T00:29:08.958Z,96.14
2023-02-24T00:30:08.925Z,96.14
2023-02-24T00:31:09.166Z,96.14
2023-02-24T00:32:09.118Z,96.14
2023-02-24T00:33:08.970Z,96.03
2023-02-24T00:34:08.882Z,95.94
2023-02-24T00:35:08.914Z,95.94
2023-02-24T00:36:08.869Z,95.94
2023-02-24T00:37:08.873Z,95.94
2023-02-24T00:38:08.801Z,95.94
2023-02-24T00:39:08.835Z,95.94
2023-02-24T00:40:08.769Z,95.94
2023-02-24T00:41:08.765Z,95.94
2023-02-24T00:42:08.803Z,95.94
2023-02-24T00:43:08.799Z,95.83
2023-02-24T00:44:08.779Z,95.83
2023-02-24T00:45:08.777Z,95.83
2023-02-24T00:46:08.820Z,95.94
2023-02-24T00:47:08.791Z,95.94
2023-02-24T00:48:08.735Z,96.03
2023-02-24T00:49:08.726Z,96.03
2023-02-24T00:50:08.738Z,96.08
2023-02-24T00:51:08.689Z,96.08
2023-02-24T00:52:08.684Z,96.19
2023-02-24T00:53:08.688Z,96.19
2023-02-24T00:54:08.626Z,96.19
2023-02-24T00:55:08.609Z,96.19
2023-02-24T00:56:08.592Z,96.19
2023-02-24T00:57:08.599Z,96.19
2023-02-24T00:58:08.570Z,96.29
2023-02-24T00:59:08.583Z,96.29
2023-02-24T01:00:08.555Z,96.29
2023-02-24T01:01:08.562Z,96.29
2023-02-24T01:02:08.520Z,96.39
2023-02-24T01:03:08.729Z,96.39
2023-02-24T01:04:08.524Z,96.39
2023-02-24T01:05:08.509Z,96.39
2023-02-24T01:06:08.501Z,96.39
2023-02-24T01:07:08.471Z,96.39
2023-02-24T01:08:09.182Z,96.39
2023-02-24T01:09:08.484Z,96.49
2023-02-24T01:10:08.460Z,96.49
2023-02-24T01:11:08.399Z,96.49
2023-02-24T01:12:08.513Z,96.59
2023-02-24T01:13:08.363Z,96.59
2023-02-24T01:14:08.380Z,96.59
2023-02-24T01:15:08.350Z,96.59
2023-02-24T01:16:08.379Z,96.59
2023-02-24T01:17:08.329Z,96.70
2023-02-24T01:18:08.334Z,96.70
2023-02-24T01:19:08.301Z,96.59
2023-02-24T01:20:08.321Z,96.59
2023-02-24T01:21:08.270Z,96.59
2023-02-24T01:22:08.312Z,96.59
2023-02-24T01:23:08.282Z,96.59
2023-02-24T01:24:08.260Z,96.59
2023-02-24T01:25:08.254Z,96.49
2023-02-24T01:26:08.236Z,96.49
2023-02-24T01:27:08.205Z,96.49
2023-02-24T01:28:08.216Z,96.39
2023-02-24T01:29:08.222Z,96.29
2023-02-24T01:30:08.193Z,96.19
2023-02-24T01:31:08.287Z,96.19
2023-02-24T01:32:08.352Z,96.19
2023-02-24T01:33:08.430Z,96.19
2023-02-24T01:34:08.160Z,96.29
2023-02-24T01:35:08.208Z,96.39
2023-02-24T01:36:08.141Z,96.39
2023-02-24T01:37:08.105Z,96.39
2023-02-24T01:38:08.112Z,96.49
2023-02-24T01:39:08.147Z,96.59
2023-02-24T01:40:08.089Z,96.59
2023-02-24T01:41:08.065Z,96.70
2023-02-24T01:42:08.059Z,96.70
2023-02-24T01:43:08.068Z,96.70
2023-02-24T01:44:08.040Z,96.70
2023-02-24T01:45:08.042Z,96.70
2023-02-24T01:46:08.062Z,96.70
2023-02-24T01:47:07.989Z,96.70
2023-02-24T01:48:07.991Z,96.70
2023-02-24T01:49:08.000Z,96.70
2023-02-24T01:50:07.972Z,96.70
2023-02-24T01:51:07.960Z,96.70
2023-02-24T01:52:07.958Z,96.70
2023-02-24T01:53:07.932Z,96.70
2023-02-24T01:54:07.936Z,96.80
2023-02-24T01:55:07.881Z,96.80
2023-02-24T01:56:07.934Z,96.80
2023-02-24T01:57:07.874Z,96.80
2023-02-24T01:58:07.941Z,96.70
2023-02-24T01:59:07.832Z,96.70
2023-02-24T02:00:07.860Z,96.59
2023-02-24T02:01:07.833Z,96.59
2023-02-24T02:02:08.003Z,96.59
2023-02-24T02:03:07.820Z,96.59
2023-02-24T02:04:07.817Z,96.59
2023-02-24T02:05:07.784Z,96.59
2023-02-24T02:06:07.792Z,96.59
2023-02-24T02:07:07.755Z,96.59
2023-02-24T02:08:07.775Z,96.59
2023-02-24T02:09:07.753Z,96.59
2023-02-24T02:10:07.754Z,96.59
2023-02-24T02:11:07.700Z,96.59
2023-02-24T02:12:07.722Z,96.49
2023-02-24T02:13:07.724Z,96.49
2023-02-24T02:14:07.704Z,96.55
2023-02-24T02:15:07.704Z,96.55
2023-02-24T02:16:07.726Z,96.45
2023-02-24T02:17:07.640Z,96.45
2023-02-24T02:18:07.651Z,96.45
2023-02-24T02:19:07.622Z,96.45
2023-02-24T02:20:07.641Z,96.49
2023-02-24T02:21:07.583Z,96.45
2023-02-24T02:22:07.612Z,96.45
2023-02-24T02:23:07.664Z,96.34
2023-02-24T02:24:07.660Z,96.34
2023-02-24T02:25:07.557Z,96.29
2023-02-24T02:26:07.584Z,96.19
2023-02-24T02:27:07.527Z,96.19
2023-02-24T02:28:07.539Z,96.19
2023-02-24T02:29:07.495Z,96.08
2023-02-24T02:30:07.554Z,96.08
2023-02-24T02:31:07.583Z,96.03
2023-02-24T02:32:07.700Z,96.14
2023-02-24T02:33:07.465Z,96.14
2023-02-24T02:34:07.475Z,96.19
2023-02-24T02:35:07.437Z,96.24
2023-02-24T02:36:07.446Z,96.24
2023-02-24T02:37:07.509Z,96.24
2023-02-24T02:38:07.432Z,96.29
2023-02-24T02:39:07.411Z,96.24
2023-02-24T02:40:07.397Z,96.39
2023-02-24T02:41:07.352Z,96.34
2023-02-24T02:42:07.406Z,96.34
2023-02-24T02:43:07.368Z,96.34
2023-02-24T02:44:07.358Z,96.24
2023-02-24T02:45:07.343Z,96.24
2023-02-24T02:46:07.359Z,96.14
2023-02-24T02:47:07.320Z,96.14
2023-02-24T02:48:07.307Z,96.14
2023-02-24T02:49:07.265Z,96.14
2023-02-24T02:50:07.293Z,96.08
2023-02-24T02:51:07.243Z,95.94
2023-02-24T02:52:07.257Z,95.98
2023-02-24T02:53:07.261Z,95.87
2023-02-24T02:54:07.233Z,95.87
2023-02-24T02:55:07.182Z,95.87
2023-02-24T02:56:07.216Z,95.87
2023-02-24T02:57:07.173Z,95.87
2023-02-24T02:58:07.192Z,95.87
2023-02-24T02:59:07.161Z,95.98
2023-02-24T03:00:07.183Z,95.98
2023-02-24T03:01:07.225Z,95.98
2023-02-24T03:02:07.140Z,95.98
2023-02-24T03:03:07.092Z,95.98
2023-02-24T03:04:07.126Z,95.87
2023-02-24T03:05:07.258Z,95.87
2023-02-24T03:06:07.110Z,95.87
2023-02-24T03:07:07.069Z,95.87
2023-02-24T03:08:08.499Z,95.87
2023-02-24T03:09:07.048Z,95.98
2023-02-24T03:10:07.049Z,95.98
2023-02-24T03:11:07.039Z,95.87
2023-02-24T03:12:07.025Z,95.87
2023-02-24T03:13:06.979Z,95.87
2023-02-24T03:14:07.017Z,95.87
2023-02-24T03:15:06.962Z,95.77
2023-02-24T03:16:06.978Z,95.77
2023-02-24T03:17:06.943Z,95.77
2023-02-24T03:18:06.948Z,95.67
2023-02-24T03:19:07.092Z,95.67
2023-02-24T03:20:06.946Z,95.77
2023-02-24T03:21:06.890Z,95.77
2023-02-24T03:22:06.890Z,95.77
2023-02-24T03:23:06.884Z,95.67
2023-02-24T03:24:06.886Z,95.67
2023-02-24T03:25:06.934Z,95.67
2023-02-24T03:26:06.858Z,95.56
2023-02-24T03:27:06.854Z,95.56
2023-02-24T03:28:06.852Z,95.56
2023-02-24T03:29:06.825Z,95.52
2023-02-24T03:30:07.178Z,95.52
2023-02-24T03:31:06.877Z,95.46
2023-02-24T03:32:06.818Z,95.36
2023-02-24T03:33:06.811Z,95.36
2023-02-24T03:34:06.741Z,95.46
2023-02-24T03:35:06.761Z,95.46
2023-02-24T03:36:06.733Z,95.46
2023-02-24T03:37:06.732Z,95.36
2023-02-24T03:38:06.708Z,95.36
2023-02-24T03:39:06.711Z,95.36
2023-02-24T03:40:06.677Z,95.25
2023-02-24T03:41:06.700Z,94.73
2023-02-24T03:42:06.640Z,94.53
2023-02-24T03:43:06.667Z,94.53
2023-02-24T03:44:06.611Z,94.53
2023-02-24T03:45:06.650Z,94.53
2023-02-24T03:46:07.130Z,94.37
2023-02-24T03:47:06.618Z,94.37
2023-02-24T03:48:06.575Z,94.47
2023-02-24T03:49:06.593Z,94.26
2023-02-24T03:50:06.548Z,94.16
2023-02-24T03:51:06.562Z,94.06
2023-02-24T03:52:06.529Z,93.95
2023-02-24T03:53:06.552Z,93.95
2023-02-24T03:54:06.519Z,93.95
2023-02-24T03:55:06.528Z,93.85
2023-02-24T03:56:06.505Z,93.74
2023-02-24T03:57:06.528Z,93.68
2023-02-24T03:58:06.457Z,93.68
2023-02-24T03:59:06.480Z,93.79
2023-02-24T04:00:06.436Z,93.89
2023-02-24T04:01:06.437Z,93.89
2023-02-24T04:02:06.482Z,93.99
2023-02-24T04:03:06.422Z,93.99
2023-02-24T04:04:06.400Z,93.89
2023-02-24T04:05:06.492Z,93.99
2023-02-24T04:06:06.699Z,93.99
2023-02-24T04:07:06.384Z,93.99
2023-02-24T04:08:06.353Z,93.89
2023-02-24T04:09:06.424Z,93.89
2023-02-24T04:10:06.320Z,93.89
2023-02-24T04:11:06.398Z,93.89
2023-02-24T04:12:06.292Z,93.89
2023-02-24T04:13:06.294Z,93.89
2023-02-24T04:14:06.268Z,93.68
2023-02-24T04:15:06.289Z,93.68
2023-02-24T04:16:06.332Z,93.68
2023-02-24T04:17:06.252Z,93.79
2023-02-24T04:18:06.228Z,93.89
2023-02-24T04:19:06.278Z,93.99
2023-02-24T04:20:06.205Z,93.89
2023-02-24T04:21:06.212Z,93.83
2023-02-24T04:22:06.195Z,93.83
2023-02-24T04:23:06.220Z,93.73
2023-02-24T04:24:06.154Z,93.73
2023-02-24T04:25:06.173Z,93.73
2023-02-24T04:26:06.153Z,93.73
2023-02-24T04:27:06.145Z,93.83
2023-02-24T04:28:06.116Z,93.93
2023-02-24T04:29:06.116Z,93.93
2023-02-24T04:30:06.087Z,94.04
2023-02-24T04:31:06.317Z,94.14
2023-02-24T04:32:06.246Z,94.14
2023-02-24T04:33:06.079Z,94.24
2023-02-24T04:34:06.034Z,94.24
2023-02-24T04:35:06.077Z,94.35
2023-02-24T04:36:06.026Z,94.35
2023-02-24T04:37:06.036Z,94.24
2023-02-24T04:38:05.994Z,94.14
2023-02-24T04:39:06.005Z,94.04
2023-02-24T04:40:05.966Z,93.93
2023-02-24T04:41:05.986Z,93.93
2023-02-24T04:42:05.974Z,93.83
2023-02-24T04:43:05.966Z,93.73
2023-02-24T04:44:05.918Z,93.62
2023-02-24T04:45:05.940Z,93.62
2023-02-24T04:46:05.972Z,93.62
2023-02-24T04:47:05.982Z,93.62
2023-02-24T04:48:05.900Z,93.73
2023-02-24T04:49:05.930Z,93.73
2023-02-24T04:50:05.859Z,93.83
2023-02-24T04:51:05.869Z,93.83
2023-02-24T04:52:05.850Z,93.87
2023-02-24T04:53:05.862Z,93.66
2023-02-24T04:54:05.818Z,93.66
2023-02-24T04:55:05.817Z,93.66
2023-02-24T04:56:05.801Z,93.77
2023-02-24T04:57:05.813Z,93.87
2023-02-24T04:58:05.773Z,93.98
2023-02-24T04:59:05.778Z,93.98
2023-02-24T05:00:05.764Z,94.08
2023-02-24T05:01:05.783Z,94.08
2023-02-24T05:02:05.723Z,93.98
2023-02-24T05:03:05.781Z,93.98
2023-02-24T05:04:05.836Z,93.98
2023-02-24T05:05:05.728Z,93.98
2023-02-24T05:06:05.697Z,93.87
2023-02-24T05:07:05.695Z,93.81
2023-02-24T05:08:05.666Z,93.91
2023-02-24T05:09:05.657Z,93.77
2023-02-24T05:10:05.646Z,93.71
2023-02-24T05:11:05.684Z,93.71
2023-02-24T05:12:05.631Z,93.71
2023-02-24T05:13:05.616Z,93.81
2023-02-24T05:14:05.610Z,93.81
2023-02-24T05:15:05.616Z,93.81
2023-02-24T05:16:05.597Z,93.81
2023-02-24T05:17:05.595Z,93.60
2023-02-24T05:18:05.575Z,93.50
2023-02-24T05:19:05.555Z,93.40
2023-02-24T05:20:05.531Z,93.29
2023-02-24T05:21:05.539Z,93.08
2023-02-24T05:22:05.508Z,93.08
2023-02-24T05:23:05.506Z,92.88
2023-02-24T05:24:05.490Z,92.78
2023-02-24T05:25:05.476Z,92.68
2023-02-24T05:26:05.465Z,92.78
2023-02-24T05:27:05.485Z,92.68
2023-02-24T05:28:05.578Z,92.57
2023-02-24T05:29:05.497Z,91.64
2023-02-24T05:30:05.448Z,90.91
2023-02-24T05:31:05.539Z,91.02
2023-02-24T05:32:05.536Z,91.43
2023-02-24T05:33:05.413Z,91.74
2023-02-24T05:34:05.376Z,91.95
2023-02-24T05:35:05.378Z,92.05
2023-02-24T05:36:05.831Z,91.95
2023-02-24T05:37:05.356Z,91.95
2023-02-24T05:38:05.324Z,92.05
2023-02-24T05:39:05.324Z,92.16
2023-02-24T05:40:05.297Z,92.36
2023-02-24T05:41:05.375Z,92.47
2023-02-24T05:42:05.286Z,92.57
2023-02-24T05:43:05.300Z,92.36
2023-02-24T05:44:05.241Z,92.05
2023-02-24T05:45:05.295Z,91.95
2023-02-24T05:46:05.239Z,92.05
2023-02-24T05:47:05.466Z,92.05
2023-02-24T05:48:05.251Z,92.16
2023-02-24T05:49:05.212Z,92.26
2023-02-24T05:50:05.206Z,92.26
2023-02-24T05:51:05.360Z,92.26
2023-02-24T05:52:05.150Z,92.16
2023-02-24T05:53:05.204Z,92.05
2023-02-24T05:54:05.167Z,91.99
2023-02-24T05:55:05.327Z,91.95
2023-02-24T05:56:05.100Z,92.10
2023-02-24T05:57:05.148Z,92.16
2023-02-24T05:58:05.101Z,92.36
2023-02-24T05:59:05.248Z,92.51
2023-02-24T06:00:05.075Z,92.51
2023-02-24T06:01:05.093Z,92.20
2023-02-24T06:02:05.107Z,92.10
2023-02-24T06:03:05.100Z,91.78
2023-02-24T06:04:05.024Z,91.68
2023-02-24T06:05:05.046Z,91.68
2023-02-24T06:06:05.030Z,91.47
2023-02-24T06:07:04.988Z,91.06
2023-02-24T06:08:04.967Z,90.95
2023-02-24T06:09:04.991Z,90.85
2023-02-24T06:10:05.009Z,90.54
2023-02-24T06:11:04.956Z,90.54
2023-02-24T06:12:04.934Z,90.54
2023-02-24T06:13:04.928Z,90.69
2023-02-24T06:14:04.922Z,90.79
2023-02-24T06:15:04.932Z,90.89
2023-02-24T06:16:05.087Z,90.89
2023-02-24T06:17:04.891Z,91.00
2023-02-24T06:18:04.873Z,90.89
2023-02-24T06:19:04.876Z,90.89
2023-02-24T06:20:04.827Z,90.79
2023-02-24T06:21:04.888Z,90.69
2023-02-24T06:22:04.827Z,90.79
2023-02-24T06:23:04.816Z,90.69
2023-02-24T06:24:04.797Z,90.69
2023-02-24T06:25:04.840Z,90.27
2023-02-24T06:26:04.756Z,90.06
2023-02-24T06:27:04.778Z,90.06
2023-02-24T06:28:04.736Z,90.17
2023-02-24T06:29:04.747Z,90.27
2023-02-24T06:30:04.766Z,90.48
2023-02-24T06:31:04.790Z,90.48
2023-02-24T06:32:04.782Z,90.48
2023-02-24T06:33:04.708Z,90.37
2023-02-24T06:34:05.061Z,90.37
2023-02-24T06:35:04.684Z,90.10
2023-02-24T06:36:04.650Z,90.00
2023-02-24T06:37:04.718Z,89.89
2023-02-24T06:38:04.630Z,90.00
2023-02-24T06:39:04.638Z,90.20
2023-02-24T06:40:04.609Z,89.69
2023-02-24T06:41:04.642Z,89.37
2023-02-24T06:42:04.612Z,89.79
2023-02-24T06:43:04.942Z,89.89
2023-02-24T06:44:04.585Z,90.00
2023-02-24T06:45:07.015Z,90.35
2023-02-24T06:46:04.616Z,90.66
2023-02-24T06:47:04.574Z,90.77
2023-02-24T06:48:04.647Z,90.87
2023-02-24T06:49:04.757Z,91.08
2023-02-24T06:50:04.772Z,91.18
2023-02-24T06:51:04.520Z,91.18
2023-02-24T06:52:04.482Z,91.39
2023-02-24T06:53:04.492Z,91.39
2023-02-24T06:54:04.455Z,91.39
2023-02-24T06:55:04.493Z,91.39
2023-02-24T06:56:04.434Z,91.39
2023-02-24T06:57:04.469Z,91.39
2023-02-24T06:58:04.611Z,91.28
2023-02-24T06:59:04.448Z,91.28
2023-02-24T07:00:04.388Z,91.28
2023-02-24T07:01:04.427Z,91.18
2023-02-24T07:02:04.412Z,90.97
2023-02-24T07:03:04.391Z,90.62
2023-02-24T07:04:04.397Z,90.41
2023-02-24T07:05:04.348Z,90.20
2023-02-24T07:06:04.330Z,90.10
2023-02-24T07:07:04.336Z,90.10
2023-02-24T07:08:04.309Z,90.10
2023-02-24T07:09:04.326Z,89.79
2023-02-24T07:10:04.495Z,89.65
2023-02-24T07:11:04.391Z,89.44
2023-02-24T07:12:04.626Z,89.44
2023-02-24T07:13:04.278Z,89.23
2023-02-24T07:14:04.225Z,89.13
2023-02-24T07:15:04.284Z,89.03
2023-02-24T07:16:04.239Z,89.03
2023-02-24T07:17:04.572Z,89.03
2023-02-24T07:18:04.197Z,88.78
2023-02-24T07:19:04.270Z,88.78
2023-02-24T07:20:04.277Z,88.78
2023-02-24T07:21:04.197Z,88.46
2023-02-24T07:22:04.596Z,87.74
2023-02-24T07:23:04.164Z,87.43
2023-02-24T07:24:04.119Z,87.43
2023-02-24T07:25:04.126Z,87.63
2023-02-24T07:26:04.096Z,87.43
2023-02-24T07:27:04.138Z,87.12
2023-02-24T07:28:04.093Z,86.91
2023-02-24T07:29:04.108Z,85.77
2023-02-24T07:30:04.121Z,85.56
2023-02-24T07:31:04.292Z,85.77
2023-02-24T07:32:04.116Z,85.46
2023-02-24T07:33:04.083Z,84.94
2023-02-24T07:34:04.019Z,83.94
2023-02-24T07:35:04.021Z,84.05
2023-02-24T07:36:03.987Z,84.36
2023-02-24T07:37:04.005Z,84.77
2023-02-24T07:38:04.186Z,84.46
2023-02-24T07:39:04.002Z,84.15
2023-02-24T07:40:03.934Z,83.84
2023-02-24T07:41:03.989Z,83.42
2023-02-24T07:42:03.962Z,83.22
2023-02-24T07:43:03.939Z,82.97
2023-02-24T07:44:04.352Z,83.07
2023-02-24T07:45:03.963Z,82.86
2023-02-24T07:46:03.913Z,82.24
2023-02-24T07:47:03.871Z,81.66
2023-02-24T07:48:03.882Z,81.97
2023-02-24T07:49:03.884Z,82.07
2023-02-24T07:50:03.870Z,82.07
2023-02-24T07:51:03.812Z,82.76
2023-02-24T07:52:03.865Z,83.07
2023-02-24T07:53:03.799Z,82.34
2023-02-24T07:54:03.818Z,82.45
2023-02-24T07:55:03.838Z,81.82
2023-02-24T07:56:03.800Z,82.24
2023-02-24T07:57:03.773Z,82.14
2023-02-24T07:58:03.808Z,82.14
2023-02-24T07:59:03.718Z,82.31
2023-02-24T08:00:03.743Z,82.20
2023-02-24T08:01:03.706Z,81.27
2023-02-24T08:02:03.814Z,81.16
2023-02-24T08:03:03.689Z,81.20
2023-02-24T08:04:03.685Z,80.99
2023-02-24T08:05:03.689Z,81.41
2023-02-24T08:06:03.668Z,81.62
2023-02-24T08:07:03.725Z,82.14
2023-02-24T08:08:03.652Z,82.03
2023-02-24T08:09:03.621Z,81.20
2023-02-24T08:10:03.695Z,80.47
2023-02-24T08:11:03.606Z,80.99
2023-02-24T08:12:03.638Z,81.06
2023-02-24T08:13:03.584Z,80.85
2023-02-24T08:14:03.599Z,79.75
2023-02-24T08:15:03.556Z,79.65
2023-02-24T08:16:03.661Z,80.27
2023-02-24T08:17:03.546Z,79.65
2023-02-24T08:18:03.549Z,79.34
2023-02-24T08:19:03.537Z,80.06
2023-02-24T08:20:03.528Z,79.85
2023-02-24T08:21:03.486Z,80.06
2023-02-24T08:22:03.491Z,79.44
2023-02-24T08:23:03.472Z,79.96
2023-02-24T08:24:03.539Z,79.44
2023-02-24T08:25:03.489Z,79.24
2023-02-24T08:26:03.674Z,78.09
2023-02-24T08:27:03.427Z,78.82
2023-02-24T08:28:08.929Z,79.34
2023-02-24T08:29:04.524Z,79.61
2023-02-24T08:30:03.445Z,78.99
2023-02-24T08:31:03.465Z,78.78
2023-02-24T08:32:03.505Z,78.47
2023-02-24T08:33:03.346Z,78.06
2023-02-24T08:34:03.369Z,78.47
2023-02-24T08:35:03.329Z,78.47
2023-02-24T08:36:03.325Z,78.89
2023-02-24T08:37:03.319Z,78.54
2023-02-24T08:38:03.333Z,76.92
2023-02-24T08:39:12.601Z,77.02
2023-02-24T08:40:03.501Z,77.33
2023-02-24T08:41:03.260Z,77.12
2023-02-24T08:42:03.322Z,77.44
2023-02-24T08:43:03.257Z,77.33
2023-02-24T08:44:03.281Z,78.47
2023-02-24T08:45:03.459Z,78.75
2023-02-24T08:46:03.246Z,78.33
2023-02-24T08:47:03.305Z,77.92
2023-02-24T08:48:03.230Z,77.98
2023-02-24T08:49:03.373Z,77.78
2023-02-24T08:50:03.217Z,77.36
2023-02-24T08:51:03.152Z,77.26
2023-02-24T08:52:03.925Z,76.64
2023-02-24T08:53:03.179Z,76.74
2023-02-24T08:54:03.154Z,76.95
2023-02-24T08:55:03.876Z,76.95
2023-02-24T08:56:03.126Z,76.32
2023-02-24T08:57:03.095Z,76.84
2023-02-24T08:58:03.148Z,76.64
2023-02-24T08:59:03.087Z,77.05
2023-02-24T09:00:03.096Z,77.05
2023-02-24T09:01:03.068Z,76.02
2023-02-24T09:02:05.014Z,76.78
2023-02-24T09:03:03.032Z,76.88
2023-02-24T09:04:03.092Z,77.71
2023-02-24T09:05:03.104Z,77.50
2023-02-24T09:06:03.027Z,77.81
2023-02-24T09:07:11.309Z,77.29
2023-02-24T09:08:03.986Z,78.23
2023-02-24T09:09:02.959Z,77.44
2023-02-24T09:10:03.019Z,78.68
2023-02-24T09:11:03.136Z,79.30
2023-02-24T09:12:02.945Z,78.89
2023-02-24T09:13:02.917Z,78.58
2023-02-24T09:14:02.972Z,78.78
2023-02-24T09:15:02.872Z,79.71
2023-02-24T09:16:02.944Z,79.37
2023-02-24T09:17:03.030Z,79.06
2023-02-24T09:18:02.906Z,78.64
2023-02-24T09:19:02.848Z,78.44
2023-02-24T09:20:02.868Z,78.96
2023-02-24T09:21:02.826Z,78.33
2023-02-24T09:22:04.226Z,77.61
2023-02-24T09:23:03.932Z,77.81
2023-02-24T09:24:02.855Z,77.81
2023-02-24T09:25:02.793Z,76.98
2023-02-24T09:26:02.918Z,77.61
2023-02-24T09:27:02.793Z,77.81
2023-02-24T09:28:02.776Z,78.33
2023-02-24T09:29:02.723Z,77.50
2023-02-24T09:30:02.816Z,77.29
2023-02-24T09:31:02.752Z,78.23
2023-02-24T09:32:02.815Z,77.71
2023-02-24T09:33:03.364Z,78.54
2023-02-24T09:34:02.702Z,77.75
2023-02-24T09:35:02.684Z,77.54
2023-02-24T09:36:02.686Z,77.33
2023-02-24T09:37:02.805Z,77.54
2023-02-24T09:38:02.768Z,77.61
2023-02-24T09:39:02.666Z,78.02
2023-02-24T09:40:02.650Z,78.33
2023-02-24T09:41:13.766Z,77.50
2023-02-24T09:42:03.620Z,77.92
2023-02-24T09:43:02.615Z,78.12
2023-02-24T09:44:02.582Z,78.12
2023-02-24T09:45:02.543Z,77.92
2023-02-24T09:46:02.732Z,78.12
2023-02-24T09:47:02.601Z,78.85
2023-02-24T09:48:02.561Z,78.33
2023-02-24T09:49:02.565Z,77.81
2023-02-24T09:50:02.552Z,77.92
2023-02-24T09:51:04.575Z,78.02
2023-02-24T09:52:02.526Z,77.29
2023-02-24T09:53:11.182Z,78.44
2023-02-24T09:54:03.521Z,78.85
2023-02-24T09:55:03.273Z,78.75
2023-02-24T09:56:02.470Z,78.78
2023-02-24T09:57:02.463Z,78.58
2023-02-24T09:58:02.449Z,78.78
2023-02-24T09:59:02.463Z,79.92
2023-02-24T10:00:02.399Z,80.33
2023-02-24T10:01:02.487Z,80.33
2023-02-24T10:02:02.576Z,80.44
2023-02-24T10:03:02.387Z,79.30
2023-02-24T10:04:06.226Z,79.41
2023-02-24T10:05:04.214Z,79.92
2023-02-24T10:06:02.326Z,80.33
2023-02-24T10:07:02.325Z,80.75
2023-02-24T10:08:02.382Z,80.23
2023-02-24T10:09:02.294Z,80.33
2023-02-24T10:10:02.320Z,80.23
2023-02-24T10:11:02.318Z,80.54
2023-02-24T10:12:02.281Z,80.33
2023-02-24T10:13:02.280Z,80.37
2023-02-24T10:14:03.649Z,80.85
2023-02-24T10:15:02.219Z,80.65
2023-02-24T10:16:08.768Z,80.44
2023-02-24T10:17:03.243Z,80.65
2023-02-24T10:18:02.214Z,80.65
2023-02-24T10:19:02.160Z,80.75
2023-02-24T10:20:02.233Z,80.44
2023-02-24T10:21:02.350Z,80.65
2023-02-24T10:22:02.172Z,80.47
2023-02-24T10:23:02.126Z,81.51
2023-02-24T10:24:02.239Z,80.99
2023-02-24T10:25:02.134Z,80.16
2023-02-24T10:26:06.705Z,80.47
2023-02-24T10:27:08.343Z,81.20
2023-02-24T10:28:03.221Z,80.58
2023-02-24T10:29:02.071Z,81.20
2023-02-24T10:30:02.068Z,81.37
2023-02-24T10:31:02.167Z,80.85
2023-02-24T10:32:02.231Z,80.65
2023-02-24T10:33:02.075Z,80.92
2023-02-24T10:34:02.148Z,80.40
2023-02-24T10:35:02.755Z,80.51
2023-02-24T10:36:02.116Z,80.51
2023-02-24T10:37:01.964Z,80.47
2023-02-24T10:38:02.008Z,80.05
2023-02-24T10:39:01.939Z,79.54
2023-02-24T10:40:02.002Z,78.40
2023-02-24T10:41:02.937Z,78.61
2023-02-24T10:42:01.970Z,78.81
2023-02-24T10:43:01.909Z,78.71
2023-02-24T10:44:02.005Z,78.23
2023-02-24T10:45:03.133Z,78.44
2023-02-24T10:46:02.040Z,79.16
2023-02-24T10:47:01.919Z,79.47
2023-02-24T10:48:02.054Z,79.16
2023-02-24T10:49:01.835Z,78.64
2023-02-24T10:50:01.954Z,78.44
2023-02-24T10:51:01.811Z,78.68
2023-02-24T10:52:01.842Z,79.37
2023-02-24T10:53:01.807Z,79.27
2023-02-24T10:54:01.871Z,79.78
2023-02-24T10:55:02.628Z,79.06
2023-02-24T10:56:02.570Z,79.47
2023-02-24T10:57:01.829Z,79.37
2023-02-24T10:58:01.778Z,79.68
2023-02-24T10:59:01.924Z,79.37
2023-02-24T11:00:01.758Z,79.27
2023-02-24T11:01:01.780Z,79.58
2023-02-24T11:02:01.735Z,79.16
2023-02-24T11:03:01.690Z,79.74
2023-02-24T11:04:01.686Z,78.61
2023-02-24T11:05:02.667Z,78.09
2023-02-24T11:06:01.668Z,77.15
2023-02-24T11:07:02.514Z,77.40
2023-02-24T11:08:02.366Z,77.61
2023-02-24T11:09:01.888Z,77.88
2023-02-24T11:10:01.675Z,77.57
2023-02-24T11:11:01.569Z,77.05
2023-02-24T11:12:01.705Z,77.05
2023-02-24T11:13:09.339Z,76.53
2023-02-24T11:14:02.597Z,76.84
2023-02-24T11:15:02.525Z,77.36
2023-02-24T11:16:01.920Z,77.47
2023-02-24T11:17:01.521Z,77.67
2023-02-24T11:18:01.810Z,77.36
2023-02-24T11:19:02.229Z,77.15
2023-02-24T11:20:01.566Z,77.57
2023-02-24T11:21:01.461Z,77.78
2023-02-24T11:22:01.490Z,77.29
2023-02-24T11:23:01.441Z,77.81
2023-02-24T11:24:01.443Z,78.23
2023-02-24T11:25:01.926Z,78.33
2023-02-24T11:26:01.427Z,77.71
2023-02-24T11:27:04.127Z,78.64
2023-02-24T11:28:01.676Z,77.44
2023-02-24T11:29:02.159Z,77.33
2023-02-24T11:30:01.391Z,78.58
2023-02-24T11:31:01.460Z,78.78
2023-02-24T11:32:01.729Z,78.61
2023-02-24T11:33:01.358Z,79.13
2023-02-24T11:34:01.487Z,78.82
2023-02-24T11:35:01.372Z,79.30
2023-02-24T11:36:02.274Z,79.41
2023-02-24T11:37:01.316Z,78.58
2023-02-24T11:38:01.305Z,78.58
2023-02-24T11:39:16.511Z,78.16
2023-02-24T11:40:02.295Z,77.75
2023-02-24T11:41:01.233Z,77.64
2023-02-24T11:42:01.255Z,78.06
2023-02-24T11:43:01.216Z,77.95
2023-02-24T11:44:01.240Z,77.23
2023-02-24T11:45:01.266Z,77.23
2023-02-24T11:46:01.207Z,77.54
2023-02-24T11:47:01.163Z,77.02
2023-02-24T11:48:01.164Z,77.33
2023-02-24T11:49:01.167Z,77.33
2023-02-24T11:50:02.628Z,78.16
2023-02-24T11:51:01.722Z,78.37
2023-02-24T11:52:01.140Z,77.95
2023-02-24T11:53:01.187Z,77.12
2023-02-24T11:54:01.104Z,77.33
2023-02-24T11:55:01.091Z,77.33
2023-02-24T11:56:01.121Z,77.33
2023-02-24T11:57:01.069Z,77.54
2023-02-24T11:58:01.051Z,77.12
2023-02-24T11:59:01.049Z,77.02
2023-02-24T12:00:01.061Z,77.02
2023-02-24T12:01:01.050Z,77.12
2023-02-24T12:02:01.010Z,77.95
2023-02-24T12:03:03.874Z,76.71
2023-02-24T12:04:00.971Z,77.68
2023-02-24T12:05:00.973Z,78.06
2023-02-24T12:06:01.107Z,77.37
2023-02-24T12:07:00.997Z,77.89
2023-02-24T12:08:01.031Z,78.41
2023-02-24T12:09:00.939Z,78.92
2023-02-24T12:10:15.613Z,79.17
2023-02-24T12:11:02.153Z,79.38
2023-02-24T12:12:00.907Z,80.31
2023-02-24T12:13:00.910Z,80.52
2023-02-24T12:14:00.903Z,80.73
2023-02-24T12:15:00.869Z,80.21
2023-02-24T12:16:01.790Z,80.83
2023-02-24T12:17:01.638Z,80.93
2023-02-24T12:18:01.552Z,80.31
2023-02-24T12:19:00.822Z,81.14
2023-02-24T12:20:00.789Z,81.18
2023-02-24T12:21:00.805Z,81.59
2023-02-24T12:22:00.773Z,81.94
2023-02-24T12:23:00.783Z,82.35
2023-02-24T12:24:00.740Z,83.50
2023-02-24T12:25:00.762Z,83.50
2023-02-24T12:26:01.113Z,83.64
2023-02-24T12:27:00.738Z,84.37
2023-02-24T12:28:00.746Z,85.30
2023-02-24T12:29:00.745Z,85.72
2023-02-24T12:30:00.830Z,85.93
2023-02-24T12:31:01.656Z,85.72
2023-02-24T12:32:00.744Z,85.86
2023-02-24T12:33:00.850Z,86.49
2023-02-24T12:34:00.682Z,87.01
2023-02-24T12:35:00.771Z,87.21
2023-02-24T12:36:00.803Z,87.38
2023-02-24T12:37:00.658Z,87.48
2023-02-24T12:38:00.809Z,87.38
2023-02-24T12:39:00.601Z,87.27
2023-02-24T12:40:00.830Z,86.96
2023-02-24T12:41:00.580Z,87.17
2023-02-24T12:42:00.548Z,86.65
2023-02-24T12:43:00.673Z,86.55
2023-02-24T12:44:00.562Z,86.65
2023-02-24T12:45:00.620Z,86.96
2023-02-24T12:46:00.542Z,87.07
2023-02-24T12:47:00.526Z,87.27
2023-02-24T12:48:00.552Z,87.38
2023-02-24T12:49:00.508Z,88.00
2023-02-24T12:50:00.489Z,88.10
2023-02-24T12:51:01.186Z,88.10
2023-02-24T12:52:00.537Z,87.86